Terminal Aerodrome Forecast
Issued by NWS

Home | Current Version | Previous Version | Text Only | Print | Product List | Glossary On
Versions: 1 2 3 4 5 6 7 8 9 10 11 12 13 14 15 16 17 18 19 20 21 22 23 24 25 26
000
FTUS44 KHGX 291122
TAFUTS
TAF
KUTS 291122Z 2912/3012 21006KT P6SM BKN007
      TEMPO 2912/2915 4SM BR
     FM291600 23004KT P6SM SCT015 SCT110 SCT250
     FM292000 31007KT P6SM SCT035 SCT120
     FM300000 34007KT P6SM FEW030 BKN120
     FM300500 01007KT P6SM BKN110 BKN200=

USA.gov is the U.S. government's official web portal to all federal, state and local government web resources and services.